메인 페이지
METAR-TAF:

METAR-TAF

공항 :

플로리아노폴리스, 산타카타리나, 브라질

위도: 27-40S, 경도: 048-33W, 고도: 5m

현재 날씨관측

예보는 48분 전, 23:00시(UTC)에 발표되었습니다.
남남동10kt
온도 15°C
습도 77%
기압 1018 hPa
시정 10km 이상
고도 2000ft 상공 흐림
약한비

METAR: SBFL 012300Z 16010KT 9999 -RA OVC020 15/11 Q1018

시각: 20:48 (23:48 UTC)

예보

예보는 2 시간 48분 전, 21:00시(UTC)에 발표되었습니다.
예보 대상 시간: 02일 00시부터 02일 24시까지 (UTC)
10kt
시정 10km 이상
고도 2000ft 상공 구름 보통

TAF: SBFL 012100Z 0200/0224 17010KT 9999 SCT020 TN18/0208Z TX28/0219Z RMK PEI

4,000개 이상의 공항 관측 자료 및 예보 (METAR 및 TAF 보고).

지도상에서 검색 가능한 기상관측소가 노란 점과 빨간 점으로 표시되어 있습니다.

기상관측소 명을 보려면 표시 위로 마우스를 이동하세요.

날씨 관측과 예보를 보려면 클릭하세요.

지도 변경 : 확대하려면 엑스 표시가 있는 녹색 버튼, 축소하려면 빼기 표시가 있는 녹색 버튼, 다음 페이지의 지도를 보려면 녹색 화살표를 클릭하세요.


METAR-TAF: